Time;durP1;ratioP1;P1;durP2;ratioP2;P2;SDS_P1;SDS_P2;PMS_P1;PMS_P2;Temp;Humidity;BMP_temperature;BMP_pressure;BME280_temperature;BME280_humidity;BME280_pressure;Samples;Min_cycle;Max_cycle;Signal;HPM_P1;HPM_P2
2023/09/18 00:01:02;;;;;;;13.00;4.67;;;;;;;;;;5033017;28;20303;-74
2023/09/18 00:03:27;;;;;;;8.90;4.43;;;;;;;;;;5028802;28;20047;-74
2023/09/18 00:05:53;;;;;;;9.30;4.27;;;;;;;;;;5034142;28;20335;-74
2023/09/18 00:08:19;;;;;;;8.80;4.43;;;;;;;;;;5031322;28;20036;-74
2023/09/18 00:10:53;;;;;;;8.77;4.10;;;;;;;;;;5030376;28;20025;-74
2023/09/18 00:13:18;;;;;;;10.20;4.38;;;;;;;;;;5035208;28;20024;-74
2023/09/18 00:15:46;;;;;;;15.65;4.90;;;;;;;;;;5035521;28;20033;-74
2023/09/18 00:18:11;;;;;;;15.98;5.03;;;;;;;;;;5034599;28;20400;-74
2023/09/18 00:20:37;;;;;;;17.25;5.03;;;;;;;;;;5046699;28;20029;-74
2023/09/18 00:23:02;;;;;;;11.77;6.07;;;;;;;;;;5046477;28;20028;-74
2023/09/18 00:25:27;;;;;;;10.30;4.95;;;;;;;;;;5031893;28;20123;-74
2023/09/18 00:27:52;;;;;;;6.97;4.53;;;;;;;;;;5036017;28;20029;-74
2023/09/18 00:30:18;;;;;;;10.18;4.72;;;;;;;;;;5034857;28;20263;-74
2023/09/18 00:32:43;;;;;;;11.43;4.63;;;;;;;;;;5033470;28;20030;-73
2023/09/18 00:35:08;;;;;;;7.87;4.57;;;;;;;;;;5033885;28;20499;-74
2023/09/18 00:37:33;;;;;;;14.75;4.97;;;;;;;;;;5039832;28;20358;-74
2023/09/18 00:39:58;;;;;;;9.07;5.10;;;;;;;;;;5030933;28;20068;-74
2023/09/18 00:42:24;;;;;;;11.93;5.43;;;;;;;;;;5036677;28;20032;-74
2023/09/18 00:44:50;;;;;;;7.28;4.50;;;;;;;;;;5036563;28;20083;-74
2023/09/18 00:47:15;;;;;;;15.30;4.90;;;;;;;;;;5039747;28;20024;-73
2023/09/18 00:49:42;;;;;;;13.63;5.35;;;;;;;;;;5028150;28;20029;-73
2023/09/18 00:52:09;;;;;;;9.77;5.07;;;;;;;;;;5031762;28;20372;-74
2023/09/18 00:54:35;;;;;;;11.70;5.15;;;;;;;;;;5028880;28;20021;-73
2023/09/18 00:57:00;;;;;;;14.00;5.03;;;;;;;;;;5035907;28;20403;-74
2023/09/18 00:59:25;;;;;;;10.55;4.68;;;;;;;;;;5018893;28;20029;-74
2023/09/18 01:01:51;;;;;;;11.82;4.68;;;;;;;;;;5033966;28;20033;-74
2023/09/18 01:04:17;;;;;;;12.05;4.63;;;;;;;;;;5032167;28;20048;-74
2023/09/18 01:06:42;;;;;;;12.95;4.93;;;;;;;;;;5031566;28;20384;-73
2023/09/18 01:09:12;;;;;;;13.23;5.00;;;;;;;;;;5036180;28;20017;-73
2023/09/18 01:11:55;;;;;;;13.98;5.28;;;;;;;;;;5034265;28;20045;-73
2023/09/18 01:14:31;;;;;;;14.57;4.63;;;;;;;;;;5021012;28;20029;-74
2023/09/18 01:16:57;;;;;;;15.10;5.65;;;;;;;;;;5035883;28;20060;-73
2023/09/18 01:19:42;;;;;;;10.85;4.43;;;;;;;;;;5037441;28;20451;-73
2023/09/18 01:22:08;;;;;;;13.07;5.47;;;;;;;;;;5033473;28;20032;-73
2023/09/18 01:24:34;;;;;;;15.45;4.88;;;;;;;;;;5033662;28;20029;-74
2023/09/18 01:26:59;;;;;;;12.30;4.93;;;;;;;;;;5031013;28;20029;-73
2023/09/18 01:29:24;;;;;;;13.97;4.80;;;;;;;;;;5044521;28;20021;-74
2023/09/18 01:31:51;;;;;;;8.27;4.50;;;;;;;;;;5046840;28;20263;-74
2023/09/18 01:34:18;;;;;;;9.90;4.25;;;;;;;;;;5033795;28;20260;-74
2023/09/18 01:36:44;;;;;;;11.18;4.32;;;;;;;;;;5030091;28;20064;-74
2023/09/18 01:39:10;;;;;;;13.02;4.55;;;;;;;;;;5032240;28;20053;-74
2023/09/18 01:41:35;;;;;;;9.13;4.72;;;;;;;;;;5027483;28;20026;-74
2023/09/18 01:44:01;;;;;;;13.10;4.90;;;;;;;;;;5030272;28;20041;-74
2023/09/18 01:46:26;;;;;;;13.70;4.95;;;;;;;;;;5033085;28;20440;-74
2023/09/18 01:48:52;;;;;;;10.40;4.35;;;;;;;;;;5031833;28;20097;-74
2023/09/18 01:51:17;;;;;;;11.70;3.97;;;;;;;;;;5026072;28;20021;-74
2023/09/18 01:53:42;;;;;;;9.17;3.70;;;;;;;;;;5032945;28;20033;-73
2023/09/18 01:56:08;;;;;;;7.50;4.20;;;;;;;;;;5033239;28;20343;-74
2023/09/18 01:58:33;;;;;;;12.10;4.38;;;;;;;;;;5039849;28;20052;-74
2023/09/18 02:01:00;;;;;;;9.60;4.00;;;;;;;;;;5028128;28;20063;-74
2023/09/18 02:03:25;;;;;;;11.43;4.43;;;;;;;;;;5035822;28;20033;-73
2023/09/18 02:05:51;;;;;;;9.17;4.00;;;;;;;;;;5030341;28;20108;-74
2023/09/18 02:08:16;;;;;;;10.85;4.32;;;;;;;;;;5036344;28;20029;-74
2023/09/18 02:10:41;;;;;;;11.88;3.90;;;;;;;;;;5040465;28;20028;-73
2023/09/18 02:13:06;;;;;;;16.23;3.87;;;;;;;;;;5043309;28;20036;-73
2023/09/18 02:15:32;;;;;;;16.63;3.45;;;;;;;;;;5029080;28;20096;-74
2023/09/18 02:17:57;;;;;;;7.38;3.75;;;;;;;;;;5027808;28;20041;-74
2023/09/18 02:20:22;;;;;;;10.75;3.63;;;;;;;;;;5037515;28;20017;-74
2023/09/18 02:22:48;;;;;;;12.67;4.43;;;;;;;;;;5036771;28;20036;-74
2023/09/18 02:25:13;;;;;;;7.07;3.67;;;;;;;;;;5040147;28;20031;-74
2023/09/18 02:27:38;;;;;;;7.97;4.03;;;;;;;;;;5040772;28;20017;-74
2023/09/18 02:30:04;;;;;;;11.63;3.27;;;;;;;;;;5033048;28;20374;-73
2023/09/18 02:32:29;;;;;;;8.65;2.80;;;;;;;;;;5033147;28;20047;-73
2023/09/18 02:34:55;;;;;;;11.10;2.53;;;;;;;;;;5036811;28;20013;-74
2023/09/18 02:37:20;;;;;;;11.77;2.53;;;;;;;;;;5032482;28;20017;-74
2023/09/18 02:39:45;;;;;;;12.20;3.53;;;;;;;;;;5048578;28;20056;-73
2023/09/18 02:42:10;;;;;;;5.80;3.10;;;;;;;;;;5041581;28;20383;-74
2023/09/18 02:44:35;;;;;;;8.77;3.43;;;;;;;;;;5031177;28;20030;-74
2023/09/18 02:47:01;;;;;;;25.40;2.70;;;;;;;;;;5031415;28;20475;-74
2023/09/18 02:49:26;;;;;;;2.90;1.87;;;;;;;;;;5040474;28;20272;-74
2023/09/18 02:51:51;;;;;;;6.73;4.43;;;;;;;;;;5034216;28;20021;-74
2023/09/18 02:54:16;;;;;;;5.27;3.10;;;;;;;;;;5038306;28;20033;-74
2023/09/18 02:56:41;;;;;;;8.70;3.30;;;;;;;;;;5037405;28;20026;-74
2023/09/18 02:59:07;;;;;;;11.57;3.60;;;;;;;;;;5029336;28;20032;-74
2023/09/18 03:01:32;;;;;;;11.40;4.15;;;;;;;;;;5026307;28;20025;-74
2023/09/18 03:03:57;;;;;;;7.80;3.17;;;;;;;;;;5026186;28;20044;-74
2023/09/18 03:06:22;;;;;;;19.07;6.47;;;;;;;;;;5026943;28;20065;-74
2023/09/18 03:08:48;;;;;;;12.30;3.17;;;;;;;;;;5029749;28;20458;-74
2023/09/18 03:11:13;;;;;;;14.83;4.43;;;;;;;;;;5040057;28;20082;-74
2023/09/18 03:13:42;;;;;;;13.23;4.18;;;;;;;;;;5032668;28;20271;-74
2023/09/18 03:16:09;;;;;;;9.23;3.78;;;;;;;;;;5034323;28;20152;-74
2023/09/18 03:18:35;;;;;;;16.85;4.88;;;;;;;;;;5031214;28;20029;-74
2023/09/18 03:21:00;;;;;;;9.50;3.77;;;;;;;;;;5044265;28;20039;-73
2023/09/18 03:23:25;;;;;;;10.55;4.63;;;;;;;;;;5039968;28;20078;-73
2023/09/18 03:25:50;;;;;;;12.43;3.70;;;;;;;;;;5031873;28;20070;-74
2023/09/18 03:28:15;;;;;;;9.07;3.97;;;;;;;;;;5031354;28;20025;-74
2023/09/18 03:30:40;;;;;;;5.50;3.93;;;;;;;;;;5033972;28;20021;-74
2023/09/18 03:33:06;;;;;;;8.57;4.40;;;;;;;;;;5034583;28;20387;-74
2023/09/18 03:35:32;;;;;;;12.53;3.87;;;;;;;;;;5031976;28;20052;-74
2023/09/18 03:37:57;;;;;;;12.02;4.40;;;;;;;;;;5031315;28;20280;-74
2023/09/18 03:40:23;;;;;;;16.43;4.07;;;;;;;;;;5046065;28;20142;-74
2023/09/18 03:42:48;;;;;;;10.20;4.35;;;;;;;;;;5037524;28;20630;-74
2023/09/18 03:45:14;;;;;;;9.70;4.07;;;;;;;;;;5031724;28;20075;-73
2023/09/18 03:47:40;;;;;;;10.98;4.65;;;;;;;;;;5029559;28;20101;-74
2023/09/18 03:50:06;;;;;;;12.45;4.55;;;;;;;;;;5029183;28;20013;-73
2023/09/18 03:52:31;;;;;;;21.55;5.35;;;;;;;;;;5040449;28;20450;-74
2023/09/18 03:54:56;;;;;;;10.05;2.92;;;;;;;;;;5031639;28;20025;-73
2023/09/18 03:57:22;;;;;;;18.13;5.13;;;;;;;;;;5026947;28;20108;-73
2023/09/18 03:59:47;;;;;;;14.97;4.30;;;;;;;;;;5033591;28;20032;-74
2023/09/18 04:02:12;;;;;;;10.60;4.07;;;;;;;;;;5028659;28;20303;-74
2023/09/18 04:04:37;;;;;;;13.60;4.57;;;;;;;;;;5027287;28;20399;-73
2023/09/18 04:07:05;;;;;;;8.67;3.90;;;;;;;;;;5036883;28;20025;-73
2023/09/18 04:09:30;;;;;;;16.52;3.45;;;;;;;;;;5028097;28;20025;-74
2023/09/18 04:11:56;;;;;;;11.50;3.75;;;;;;;;;;5037854;28;20072;-73
2023/09/18 04:14:21;;;;;;;12.80;4.03;;;;;;;;;;5025353;28;20102;-74
2023/09/18 04:16:46;;;;;;;11.17;4.13;;;;;;;;;;5031906;28;20048;-74
2023/09/18 04:19:11;;;;;;;14.50;4.43;;;;;;;;;;5027661;28;20032;-73
2023/09/18 04:21:36;;;;;;;13.47;4.80;;;;;;;;;;5034009;28;20067;-73
2023/09/18 04:24:02;;;;;;;17.67;5.40;;;;;;;;;;5036144;28;20248;-73
2023/09/18 04:26:30;;;;;;;9.00;3.10;;;;;;;;;;5039002;28;20638;-74
2023/09/18 04:28:58;;;;;;;22.42;4.60;;;;;;;;;;5030393;28;20030;-73
2023/09/18 04:31:24;;;;;;;11.23;3.97;;;;;;;;;;5037843;28;20083;-73
2023/09/18 04:33:49;;;;;;;14.87;4.77;;;;;;;;;;5026270;28;20779;-73
2023/09/18 04:36:14;;;;;;;18.45;4.20;;;;;;;;;;5026623;28;20358;-73
2023/09/18 04:38:39;;;;;;;6.93;3.03;;;;;;;;;;5036518;28;20021;-73
2023/09/18 04:41:06;;;;;;;10.93;4.60;;;;;;;;;;5039502;28;20342;-73
2023/09/18 04:43:32;;;;;;;13.63;2.17;;;;;;;;;;5036387;28;20476;-73
2023/09/18 04:45:57;;;;;;;20.70;4.85;;;;;;;;;;5034689;28;20031;-74
2023/09/18 04:48:22;;;;;;;17.90;4.50;;;;;;;;;;5035995;28;20447;-73
2023/09/18 04:50:48;;;;;;;8.40;3.37;;;;;;;;;;5042187;28;20310;-73
2023/09/18 04:53:13;;;;;;;7.80;3.42;;;;;;;;;;5024874;28;20296;-73
2023/09/18 04:55:39;;;;;;;16.63;4.60;;;;;;;;;;5030501;28;20056;-74
2023/09/18 04:58:05;;;;;;;11.97;4.27;;;;;;;;;;5023527;28;20033;-73
2023/09/18 05:00:31;;;;;;;19.52;4.70;;;;;;;;;;5031408;28;20487;-73
2023/09/18 05:02:57;;;;;;;18.13;4.75;;;;;;;;;;5032576;28;20337;-73
2023/09/18 05:05:22;;;;;;;12.95;3.78;;;;;;;;;;5032955;28;20028;-73
2023/09/18 05:07:47;;;;;;;9.63;2.77;;;;;;;;;;5029024;28;20098;-73
2023/09/18 05:10:12;;;;;;;15.70;4.82;;;;;;;;;;5034103;28;20721;-73
2023/09/18 05:12:38;;;;;;;10.93;3.33;;;;;;;;;;5029318;28;20167;-73
2023/09/18 05:15:04;;;;;;;15.38;3.97;;;;;;;;;;5031256;28;20100;-73
2023/09/18 05:17:39;;;;;;;21.10;4.55;;;;;;;;;;5026342;28;20551;-73
2023/09/18 05:20:06;;;;;;;10.50;3.35;;;;;;;;;;5026888;28;20396;-73
2023/09/18 05:22:31;;;;;;;16.48;4.80;;;;;;;;;;5025294;28;20013;-73
2023/09/18 05:24:56;;;;;;;19.92;4.50;;;;;;;;;;5026062;28;20026;-73
2023/09/18 05:27:24;;;;;;;17.93;3.93;;;;;;;;;;5035064;28;20029;-74
2023/09/18 05:29:50;;;;;;;23.00;4.65;;;;;;;;;;5022472;28;20018;-73
2023/09/18 05:32:15;;;;;;;14.33;3.33;;;;;;;;;;5031137;28;20036;-73
2023/09/18 05:34:40;;;;;;;16.00;3.97;;;;;;;;;;5033145;28;20391;-73
2023/09/18 05:37:05;;;;;;;20.40;5.15;;;;;;;;;;5038879;28;20029;-73
2023/09/18 05:39:31;;;;;;;15.67;3.63;;;;;;;;;;5041302;28;20025;-73
2023/09/18 05:41:56;;;;;;;11.88;4.15;;;;;;;;;;5032861;28;20049;-73
2023/09/18 05:44:21;;;;;;;10.23;3.07;;;;;;;;;;5026885;28;20033;-74
2023/09/18 05:46:47;;;;;;;12.47;4.10;;;;;;;;;;5023830;28;20083;-74
2023/09/18 05:49:12;;;;;;;18.90;3.75;;;;;;;;;;5019021;28;20272;-73
2023/09/18 05:51:37;;;;;;;11.32;3.50;;;;;;;;;;5018728;28;20017;-73
2023/09/18 05:54:03;;;;;;;13.23;3.65;;;;;;;;;;5031011;28;20107;-73
2023/09/18 05:56:28;;;;;;;17.90;3.55;;;;;;;;;;5032456;28;20033;-73
2023/09/18 05:58:55;;;;;;;9.00;2.33;;;;;;;;;;5034060;28;20246;-73
2023/09/18 06:01:20;;;;;;;17.80;3.63;;;;;;;;;;5031318;28;20037;-73
2023/09/18 06:03:45;;;;;;;14.77;2.70;;;;;;;;;;5032886;28;20033;-73
2023/09/18 06:06:10;;;;;;;15.63;4.32;;;;;;;;;;5018980;28;20178;-74
2023/09/18 06:08:36;;;;;;;6.07;2.10;;;;;;;;;;5023965;28;20027;-74
2023/09/18 06:11:01;;;;;;;12.00;3.25;;;;;;;;;;5027304;28;20295;-74
2023/09/18 06:13:27;;;;;;;16.27;3.93;;;;;;;;;;5026830;28;20018;-73
2023/09/18 06:15:54;;;;;;;7.82;2.67;;;;;;;;;;5020502;28;20268;-73
2023/09/18 06:18:20;;;;;;;13.15;2.67;;;;;;;;;;5018426;28;20282;-74
2023/09/18 06:20:45;;;;;;;21.10;3.70;;;;;;;;;;5028769;28;20105;-73
2023/09/18 06:23:11;;;;;;;10.82;3.03;;;;;;;;;;5024170;28;20692;-74
2023/09/18 06:25:37;;;;;;;12.83;3.63;;;;;;;;;;5028845;28;20581;-73
2023/09/18 06:28:03;;;;;;;19.98;2.78;;;;;;;;;;5025478;28;20021;-74
2023/09/18 06:30:30;;;;;;;12.57;3.58;;;;;;;;;;5030776;28;20479;-73
2023/09/18 06:32:55;;;;;;;15.02;3.42;;;;;;;;;;5026088;28;20076;-73
2023/09/18 06:35:21;;;;;;;16.20;3.63;;;;;;;;;;5028256;28;20508;-73
2023/09/18 06:37:46;;;;;;;16.77;3.40;;;;;;;;;;5034485;28;20290;-73
2023/09/18 06:40:11;;;;;;;17.70;3.53;;;;;;;;;;5041952;28;20029;-73
2023/09/18 06:42:37;;;;;;;14.43;2.83;;;;;;;;;;5028794;28;20264;-73
2023/09/18 06:45:06;;;;;;;6.97;2.10;;;;;;;;;;5032894;28;20025;-74
2023/09/18 06:47:31;;;;;;;14.38;2.90;;;;;;;;;;5029490;28;20018;-73
2023/09/18 06:49:57;;;;;;;5.97;1.92;;;;;;;;;;5027792;28;20108;-74
2023/09/18 06:52:22;;;;;;;9.30;2.65;;;;;;;;;;5027541;28;20017;-73
2023/09/18 06:54:47;;;;;;;15.40;4.07;;;;;;;;;;5037938;28;20163;-74
2023/09/18 06:57:13;;;;;;;10.50;2.77;;;;;;;;;;5033117;28;20480;-74
2023/09/18 06:59:38;;;;;;;14.40;3.40;;;;;;;;;;5029212;28;20025;-73
2023/09/18 07:02:03;;;;;;;21.33;2.63;;;;;;;;;;5023971;28;20022;-73
2023/09/18 07:04:28;;;;;;;9.48;2.58;;;;;;;;;;5024066;28;20059;-74
2023/09/18 07:06:54;;;;;;;14.88;2.88;;;;;;;;;;5023451;28;20056;-74
2023/09/18 07:09:19;;;;;;;9.98;2.25;;;;;;;;;;5025585;28;20021;-73
2023/09/18 07:11:44;;;;;;;17.58;3.85;;;;;;;;;;5029103;28;20096;-73
2023/09/18 07:14:09;;;;;;;11.88;2.97;;;;;;;;;;5023760;28;20025;-73
2023/09/18 07:16:35;;;;;;;9.50;2.33;;;;;;;;;;5024082;28;20049;-73
2023/09/18 07:19:01;;;;;;;9.70;2.78;;;;;;;;;;5029717;28;20021;-73
2023/09/18 07:21:26;;;;;;;13.82;2.33;;;;;;;;;;5036327;28;20472;-73
2023/09/18 07:23:51;;;;;;;16.33;2.87;;;;;;;;;;5031515;28;20029;-74
2023/09/18 07:26:17;;;;;;;6.28;1.40;;;;;;;;;;5022949;28;20292;-74
2023/09/18 07:28:44;;;;;;;10.55;2.28;;;;;;;;;;5024737;28;20465;-73
2023/09/18 07:31:11;;;;;;;7.22;2.10;;;;;;;;;;5029767;28;20021;-74
2023/09/18 07:33:37;;;;;;;8.38;2.22;;;;;;;;;;5026931;28;20039;-73
2023/09/18 07:36:03;;;;;;;4.60;1.52;;;;;;;;;;5022637;28;21246;-73
2023/09/18 07:38:28;;;;;;;10.10;1.70;;;;;;;;;;5032817;28;20079;-74
2023/09/18 07:40:54;;;;;;;6.25;1.13;;;;;;;;;;5035325;28;20048;-73
2023/09/18 07:43:20;;;;;;;13.60;1.77;;;;;;;;;;5024154;28;20021;-73
2023/09/18 07:45:45;;;;;;;6.38;2.00;;;;;;;;;;5026265;28;20029;-73
2023/09/18 07:48:10;;;;;;;4.13;1.33;;;;;;;;;;5025778;28;21425;-73
2023/09/18 07:50:35;;;;;;;13.43;2.10;;;;;;;;;;5025635;28;20426;-73
2023/09/18 07:53:01;;;;;;;4.47;1.50;;;;;;;;;;5023578;28;20955;-74
2023/09/18 07:55:26;;;;;;;8.60;2.05;;;;;;;;;;5024999;28;20824;-73
2023/09/18 07:57:51;;;;;;;9.15;1.25;;;;;;;;;;5028499;28;20017;-73
2023/09/18 08:00:17;;;;;;;10.73;2.37;;;;;;;;;;5028108;28;20075;-74
2023/09/18 08:02:42;;;;;;;9.20;2.15;;;;;;;;;;5027007;28;20402;-73
2023/09/18 08:05:08;;;;;;;10.70;1.67;;;;;;;;;;5025382;28;20033;-73
2023/09/18 08:07:35;;;;;;;2.80;0.75;;;;;;;;;;5022902;28;20108;-74
2023/09/18 08:10:00;;;;;;;11.20;1.77;;;;;;;;;;5024937;28;20009;-73
2023/09/18 08:12:26;;;;;;;6.20;1.27;;;;;;;;;;5027898;28;20032;-73
2023/09/18 08:14:51;;;;;;;5.80;1.53;;;;;;;;;;5028199;28;20268;-74
2023/09/18 08:17:16;;;;;;;4.50;1.80;;;;;;;;;;5028220;28;20859;-74
2023/09/18 08:19:42;;;;;;;6.60;2.42;;;;;;;;;;5030376;28;20323;-73
2023/09/18 08:22:07;;;;;;;6.85;2.35;;;;;;;;;;5029746;28;20026;-74
2023/09/18 08:24:33;;;;;;;5.05;1.20;;;;;;;;;;5026470;28;20506;-74
2023/09/18 08:26:58;;;;;;;3.35;1.25;;;;;;;;;;5027468;28;20071;-73
2023/09/18 08:29:23;;;;;;;5.27;1.33;;;;;;;;;;5028006;28;20403;-73
2023/09/18 08:31:50;;;;;;;7.83;1.43;;;;;;;;;;5030461;28;20642;-73
2023/09/18 08:34:15;;;;;;;8.25;1.60;;;;;;;;;;5032325;28;20267;-73
2023/09/18 08:36:40;;;;;;;7.40;1.80;;;;;;;;;;5031045;28;20025;-73
2023/09/18 08:39:06;;;;;;;3.40;1.30;;;;;;;;;;5030260;28;20268;-73
2023/09/18 08:41:32;;;;;;;7.65;2.42;;;;;;;;;;5033808;28;20108;-74
2023/09/18 08:44:03;;;;;;;6.60;1.95;;;;;;;;;;5032482;28;20167;-73
2023/09/18 08:46:28;;;;;;;5.35;1.00;;;;;;;;;;5031515;28;20026;-73
2023/09/18 08:48:53;;;;;;;6.95;1.30;;;;;;;;;;5028733;28;20028;-73
2023/09/18 08:51:19;;;;;;;2.95;1.20;;;;;;;;;;5034772;28;20052;-74
2023/09/18 08:53:45;;;;;;;5.07;1.48;;;;;;;;;;5040931;28;20060;-74
2023/09/18 08:56:12;;;;;;;4.07;1.30;;;;;;;;;;5032960;28;21002;-74
2023/09/18 08:58:40;;;;;;;5.57;1.40;;;;;;;;;;5032665;28;20029;-73
2023/09/18 09:01:07;;;;;;;2.72;1.08;;;;;;;;;;5030661;28;20025;-74
2023/09/18 09:03:34;;;;;;;6.75;2.05;;;;;;;;;;5030500;28;20036;-73
2023/09/18 09:06:01;;;;;;;7.75;1.73;;;;;;;;;;5030800;28;20504;-74
2023/09/18 09:08:26;;;;;;;6.97;1.30;;;;;;;;;;5027842;28;20021;-74
2023/09/18 09:10:52;;;;;;;5.65;1.42;;;;;;;;;;5029467;28;20021;-73
2023/09/18 09:13:17;;;;;;;5.53;0.95;;;;;;;;;;5035088;28;20022;-74
2023/09/18 09:15:46;;;;;;;4.47;2.20;;;;;;;;;;5028247;28;20027;-73
2023/09/18 09:18:11;;;;;;;3.90;0.80;;;;;;;;;;5027489;28;20359;-74
2023/09/18 09:20:36;;;;;;;4.82;1.30;;;;;;;;;;5024173;28;20116;-74
2023/09/18 09:23:02;;;;;;;4.88;1.20;;;;;;;;;;5016907;28;20096;-73
2023/09/18 09:25:31;;;;;;;8.50;1.35;;;;;;;;;;5025558;28;20056;-73
2023/09/18 09:27:56;;;;;;;5.07;1.10;;;;;;;;;;5027524;28;20024;-74
2023/09/18 09:30:26;;;;;;;3.83;1.42;;;;;;;;;;5025016;28;20026;-73
2023/09/18 09:32:51;;;;;;;;;;;;;;;;;;5028563;28;20024;-73
2023/09/18 09:35:21;;;;;;;2.53;1.35;;;;;;;;;;5025298;28;19913;-73
2023/09/18 09:37:46;;;;;;;3.08;1.10;;;;;;;;;;5029752;28;20053;-74
2023/09/18 09:40:14;;;;;;;4.40;1.50;;;;;;;;;;5022335;28;20049;-74
2023/09/18 09:42:40;;;;;;;3.40;1.20;;;;;;;;;;5024180;28;20025;-73
2023/09/18 09:45:11;;;;;;;3.78;0.70;;;;;;;;;;5023699;28;20296;-73
2023/09/18 09:47:37;;;;;;;3.03;0.82;;;;;;;;;;5029420;28;20030;-74
2023/09/18 09:50:06;;;;;;;11.20;1.40;;;;;;;;;;5027777;28;20048;-74
2023/09/18 09:52:33;;;;;;;6.80;1.83;;;;;;;;;;5022428;28;20101;-73
2023/09/18 09:54:58;;;;;;;2.45;0.82;;;;;;;;;;5026672;28;20524;-74
2023/09/18 09:57:23;;;;;;;2.45;0.90;;;;;;;;;;5025882;28;20164;-74
2023/09/18 09:59:48;;;;;;;1.10;0.70;;;;;;;;;;5023787;28;20484;-73
2023/09/18 10:02:19;;;;;;;3.30;1.27;;;;;;;;;;5026211;28;20345;-73
2023/09/18 10:04:48;;;;;;;6.93;1.30;;;;;;;;;;5025762;28;20597;-73
2023/09/18 10:07:13;;;;;;;3.00;1.25;;;;;;;;;;5024855;28;20472;-73
2023/09/18 10:09:40;;;;;;;4.75;1.08;;;;;;;;;;5028926;28;20018;-74
2023/09/18 10:12:10;;;;;;;4.82;1.38;;;;;;;;;;5031565;28;20024;-74
2023/09/18 10:14:36;;;;;;;5.10;1.33;;;;;;;;;;5029715;28;20124;-74
2023/09/18 10:17:07;;;;;;;7.22;1.13;;;;;;;;;;5025487;28;20322;-73
2023/09/18 10:19:52;;;;;;;6.43;1.38;;;;;;;;;;5030416;28;20024;-74
2023/09/18 10:22:26;;;;;;;3.25;1.33;;;;;;;;;;5031190;28;20096;-74
2023/09/18 10:24:54;;;;;;;8.48;1.40;;;;;;;;;;5028733;28;20051;-73
2023/09/18 10:27:21;;;;;;;3.17;1.42;;;;;;;;;;5029097;28;20021;-73
2023/09/18 10:29:48;;;;;;;3.13;1.55;;;;;;;;;;5026734;28;20017;-73
2023/09/18 10:32:15;;;;;;;2.45;0.80;;;;;;;;;;5025092;28;20546;-73
2023/09/18 10:34:41;;;;;;;1.17;0.50;;;;;;;;;;5027221;28;20021;-74
2023/09/18 10:37:07;;;;;;;3.05;0.98;;;;;;;;;;5022227;28;20038;-73
2023/09/18 10:39:37;;;;;;;1.48;0.85;;;;;;;;;;5027857;28;20026;-73
2023/09/18 10:42:03;;;;;;;0.80;0.57;;;;;;;;;;5025889;28;20017;-73
2023/09/18 10:44:29;;;;;;;6.88;1.05;;;;;;;;;;5027855;28;20030;-73
2023/09/18 10:46:55;;;;;;;2.65;0.73;;;;;;;;;;5022220;28;20086;-73
2023/09/18 10:49:21;;;;;;;0.85;0.45;;;;;;;;;;5025451;28;20021;-73
2023/09/18 10:51:46;;;;;;;1.90;0.95;;;;;;;;;;5022649;28;20391;-73
2023/09/18 10:54:15;;;;;;;1.65;0.93;;;;;;;;;;5027368;28;20513;-73
2023/09/18 10:56:44;;;;;;;7.72;1.02;;;;;;;;;;5026115;28;20033;-73
2023/09/18 10:59:09;;;;;;;1.73;0.93;;;;;;;;;;5027037;28;20037;-73
2023/09/18 11:01:36;;;;;;;3.85;1.38;;;;;;;;;;5026676;28;20033;-73
2023/09/18 11:04:02;;;;;;;4.70;1.08;;;;;;;;;;5025716;28;20508;-73
2023/09/18 11:06:28;;;;;;;2.85;0.75;;;;;;;;;;5026781;28;20013;-74
2023/09/18 11:09:03;;;;;;;3.20;0.95;;;;;;;;;;5019684;28;20379;-73
2023/09/18 11:11:29;;;;;;;7.05;1.67;;;;;;;;;;5024353;28;20013;-73
2023/09/18 11:13:55;;;;;;;9.45;0.77;;;;;;;;;;5023035;28;20029;-73
2023/09/18 11:16:26;;;;;;;0.63;0.40;;;;;;;;;;5026115;28;20431;-73
2023/09/18 11:19:12;;;;;;;3.08;0.90;;;;;;;;;;5026971;28;20032;-73
2023/09/18 11:21:37;;;;;;;5.13;0.95;;;;;;;;;;5024142;28;20045;-73
2023/09/18 11:24:04;;;;;;;2.85;1.02;;;;;;;;;;5024788;28;20028;-73
2023/09/18 11:26:30;;;;;;;3.33;1.50;;;;;;;;;;5028272;28;20029;-73
2023/09/18 11:28:56;;;;;;;3.03;0.82;;;;;;;;;;5026521;28;20369;-73
2023/09/18 11:31:40;;;;;;;1.77;0.68;;;;;;;;;;5026827;28;20076;-73
2023/09/18 11:34:11;;;;;;;2.38;1.00;;;;;;;;;;5026450;28;20033;-73
2023/09/18 11:36:36;;;;;;;2.10;1.00;;;;;;;;;;5028024;28;20028;-73
2023/09/18 11:39:04;;;;;;;5.35;1.23;;;;;;;;;;5028966;28;20021;-73
2023/09/18 11:41:35;;;;;;;4.78;0.85;;;;;;;;;;5026035;28;20045;-73
2023/09/18 11:44:13;;;;;;;3.75;0.77;;;;;;;;;;5023847;28;20029;-73
2023/09/18 11:46:39;;;;;;;5.18;1.45;;;;;;;;;;5033066;28;20040;-73
2023/09/18 11:49:06;;;;;;;4.03;1.00;;;;;;;;;;5031166;28;20029;-73
2023/09/18 11:51:32;;;;;;;3.47;1.00;;;;;;;;;;5033829;28;20021;-74
2023/09/18 11:53:57;;;;;;;3.22;0.80;;;;;;;;;;5031436;28;20036;-73
2023/09/18 11:56:22;;;;;;;2.55;0.90;;;;;;;;;;5031287;28;20029;-73
2023/09/18 11:58:48;;;;;;;2.40;0.97;;;;;;;;;;5027952;28;20090;-73
2023/09/18 12:01:15;;;;;;;1.15;0.57;;;;;;;;;;5025677;28;20290;-73
2023/09/18 12:03:40;;;;;;;3.15;0.80;;;;;;;;;;5027235;28;20071;-73
2023/09/18 12:06:05;;;;;;;14.23;1.20;;;;;;;;;;5025185;28;20026;-73
2023/09/18 12:08:31;;;;;;;3.92;1.23;;;;;;;;;;5028273;28;20017;-73
2023/09/18 12:10:57;;;;;;;5.10;1.02;;;;;;;;;;5028136;28;20018;-73
2023/09/18 12:13:24;;;;;;;1.75;0.77;;;;;;;;;;5025569;28;20037;-72
2023/09/18 12:15:49;;;;;;;5.82;1.17;;;;;;;;;;5026441;28;20029;-73
2023/09/18 12:18:15;;;;;;;2.28;0.80;;;;;;;;;;5029471;28;20527;-73
2023/09/18 12:20:47;;;;;;;3.65;0.82;;;;;;;;;;5025323;28;20021;-72
2023/09/18 12:23:12;;;;;;;9.20;1.70;;;;;;;;;;5030251;28;20602;-74
2023/09/18 12:25:38;;;;;;;1.07;0.80;;;;;;;;;;5026546;28;20033;-72
2023/09/18 12:28:06;;;;;;;2.63;1.10;;;;;;;;;;5027893;28;20018;-73
2023/09/18 12:30:32;;;;;;;2.50;0.90;;;;;;;;;;5026745;28;20025;-73
2023/09/18 12:32:59;;;;;;;5.43;1.00;;;;;;;;;;5028037;28;20092;-73
2023/09/18 12:35:29;;;;;;;6.43;1.27;;;;;;;;;;5027783;28;20018;-73
2023/09/18 12:37:54;;;;;;;3.00;0.98;;;;;;;;;;5028755;28;20532;-73
2023/09/18 12:40:23;;;;;;;4.37;1.40;;;;;;;;;;5027840;28;20108;-73
2023/09/18 12:42:49;;;;;;;3.35;1.40;;;;;;;;;;5027220;28;20763;-73
2023/09/18 12:45:14;;;;;;;3.05;1.08;;;;;;;;;;5028168;28;20027;-73
2023/09/18 12:47:40;;;;;;;2.43;1.20;;;;;;;;;;5032204;28;20017;-73
2023/09/18 12:50:11;;;;;;;5.82;1.27;;;;;;;;;;5032016;28;20271;-73
2023/09/18 12:52:36;;;;;;;4.88;1.10;;;;;;;;;;5023186;28;20040;-73
2023/09/18 12:55:03;;;;;;;4.20;1.42;;;;;;;;;;5024381;28;20036;-74
2023/09/18 12:57:28;;;;;;;4.30;1.27;;;;;;;;;;5029368;28;20030;-73
2023/09/18 12:59:54;;;;;;;3.60;1.08;;;;;;;;;;5032882;28;20108;-74
2023/09/18 13:02:20;;;;;;;2.30;1.05;;;;;;;;;;5030583;28;20100;-74
2023/09/18 13:04:52;;;;;;;5.20;1.37;;;;;;;;;;5029174;28;20120;-73
2023/09/18 13:07:18;;;;;;;5.32;1.35;;;;;;;;;;5024853;28;20618;-74
2023/09/18 13:09:58;;;;;;;3.92;1.10;;;;;;;;;;5027389;28;20053;-72
2023/09/18 13:12:23;;;;;;;6.68;1.00;;;;;;;;;;5018140;28;20495;-73
2023/09/18 13:15:08;;;;;;;2.53;1.47;;;;;;;;;;5024661;28;20034;-73
2023/09/18 13:17:39;;;;;;;3.50;1.27;;;;;;;;;;5023031;28;20029;-73
2023/09/18 13:20:26;;;;;;;1.23;0.70;;;;;;;;;;5019486;28;20053;-73
2023/09/18 13:22:52;;;;;;;4.10;2.03;;;;;;;;;;5027358;28;20071;-73
2023/09/18 13:25:24;;;;;;;3.85;1.10;;;;;;;;;;5026483;28;20506;-73
2023/09/18 13:27:50;;;;;;;3.25;1.02;;;;;;;;;;5023484;28;20040;-73
2023/09/18 13:30:17;;;;;;;4.97;1.05;;;;;;;;;;5025803;28;20022;-73
2023/09/18 13:32:42;;;;;;;1.20;0.75;;;;;;;;;;5024188;28;20022;-73
2023/09/18 13:35:08;;;;;;;3.15;0.90;;;;;;;;;;5025235;28;20160;-73
2023/09/18 13:37:34;;;;;;;4.43;1.60;;;;;;;;;;5028195;28;20510;-73
2023/09/18 13:40:01;;;;;;;6.45;3.00;;;;;;;;;;5026307;28;20059;-73
2023/09/18 13:42:27;;;;;;;4.72;1.10;;;;;;;;;;5023133;28;20044;-73
2023/09/18 13:44:53;;;;;;;4.43;1.33;;;;;;;;;;5025122;28;20056;-73
2023/09/18 13:47:18;;;;;;;4.20;1.65;;;;;;;;;;5025783;28;20013;-73
2023/09/18 13:49:46;;;;;;;3.37;1.70;;;;;;;;;;5025620;28;20018;-73
2023/09/18 13:52:11;;;;;;;3.15;1.10;;;;;;;;;;5025769;28;20097;-73
2023/09/18 13:54:36;;;;;;;1.67;0.77;;;;;;;;;;5025260;28;20100;-73
2023/09/18 13:57:04;;;;;;;1.83;0.93;;;;;;;;;;5025533;28;20272;-73
2023/09/18 13:59:30;;;;;;;4.68;1.08;;;;;;;;;;5022451;28;20047;-73
2023/09/18 14:01:55;;;;;;;2.00;1.10;;;;;;;;;;5026839;28;20029;-73
2023/09/18 14:04:21;;;;;;;1.43;0.63;;;;;;;;;;5024967;28;20303;-73
2023/09/18 14:06:46;;;;;;;2.40;1.20;;;;;;;;;;5025384;28;20306;-73
2023/09/18 14:09:12;;;;;;;3.77;1.40;;;;;;;;;;5025233;28;20698;-73
2023/09/18 14:11:38;;;;;;;6.97;1.20;;;;;;;;;;5026639;28;20068;-74
2023/09/18 14:14:03;;;;;;;2.30;1.45;;;;;;;;;;5024001;28;20957;-73
2023/09/18 14:16:28;;;;;;;2.40;1.23;;;;;;;;;;5026897;28;20113;-73
2023/09/18 14:18:54;;;;;;;3.73;1.10;;;;;;;;;;5023727;28;20032;-73
2023/09/18 14:21:19;;;;;;;3.72;1.38;;;;;;;;;;5023940;28;20029;-73
2023/09/18 14:23:44;;;;;;;3.60;1.20;;;;;;;;;;5031772;28;20377;-74
2023/09/18 14:26:09;;;;;;;2.20;1.10;;;;;;;;;;5019692;28;20488;-74
2023/09/18 14:28:35;;;;;;;4.18;1.20;;;;;;;;;;5022030;28;20264;-73
2023/09/18 14:31:02;;;;;;;2.85;1.10;;;;;;;;;;5024474;28;20033;-73
2023/09/18 14:33:27;;;;;;;3.10;1.20;;;;;;;;;;5027897;28;20516;-73